sensor_id;sensor_type;location;lat;lon;timestamp;P1;durP1;ratioP1;P2;durP2;ratioP2
8803;SDS011;4438;50.890;4.726;2022-10-10T00:00:35;6.47;;;5.60;;
8803;SDS011;4438;50.890;4.726;2022-10-10T00:03:01;5.80;;;5.13;;
8803;SDS011;4438;50.890;4.726;2022-10-10T00:05:27;6.13;;;4.90;;
8803;SDS011;4438;50.890;4.726;2022-10-10T00:07:53;7.10;;;5.50;;
8803;SDS011;4438;50.890;4.726;2022-10-10T00:10:19;6.30;;;5.17;;
8803;SDS011;4438;50.890;4.726;2022-10-10T00:12:45;5.87;;;5.23;;
8803;SDS011;4438;50.890;4.726;2022-10-10T00:15:12;6.77;;;5.40;;
8803;SDS011;4438;50.890;4.726;2022-10-10T00:17:38;6.47;;;5.53;;
8803;SDS011;4438;50.890;4.726;2022-10-10T00:20:06;8.47;;;5.90;;
8803;SDS011;4438;50.890;4.726;2022-10-10T00:22:32;6.10;;;5.30;;
8803;SDS011;4438;50.890;4.726;2022-10-10T00:24:58;6.67;;;5.63;;
8803;SDS011;4438;50.890;4.726;2022-10-10T00:27:25;6.27;;;5.00;;
8803;SDS011;4438;50.890;4.726;2022-10-10T00:29:51;6.00;;;5.00;;
8803;SDS011;4438;50.890;4.726;2022-10-10T00:32:17;5.17;;;4.73;;
8803;SDS011;4438;50.890;4.726;2022-10-10T00:34:43;5.67;;;5.13;;
8803;SDS011;4438;50.890;4.726;2022-10-10T00:37:09;5.60;;;4.77;;
8803;SDS011;4438;50.890;4.726;2022-10-10T00:39:35;5.20;;;4.70;;
8803;SDS011;4438;50.890;4.726;2022-10-10T00:42:01;5.67;;;4.90;;
8803;SDS011;4438;50.890;4.726;2022-10-10T00:44:27;5.40;;;4.90;;
8803;SDS011;4438;50.890;4.726;2022-10-10T00:46:53;5.27;;;4.77;;
8803;SDS011;4438;50.890;4.726;2022-10-10T00:49:20;5.30;;;4.80;;
8803;SDS011;4438;50.890;4.726;2022-10-10T00:51:47;5.10;;;4.40;;
8803;SDS011;4438;50.890;4.726;2022-10-10T00:54:15;5.33;;;4.80;;
8803;SDS011;4438;50.890;4.726;2022-10-10T00:56:44;5.60;;;4.50;;
8803;SDS011;4438;50.890;4.726;2022-10-10T00:59:12;5.20;;;4.80;;
8803;SDS011;4438;50.890;4.726;2022-10-10T01:01:39;5.57;;;4.40;;
8803;SDS011;4438;50.890;4.726;2022-10-10T01:04:06;5.20;;;4.53;;
8803;SDS011;4438;50.890;4.726;2022-10-10T01:06:51;4.57;;;4.10;;
8803;SDS011;4438;50.890;4.726;2022-10-10T01:09:18;5.30;;;4.80;;
8803;SDS011;4438;50.890;4.726;2022-10-10T01:11:54;5.10;;;4.50;;
8803;SDS011;4438;50.890;4.726;2022-10-10T01:27:41;4.63;;;4.23;;
8803;SDS011;4438;50.890;4.726;2022-10-10T01:30:10;4.53;;;4.13;;
8803;SDS011;4438;50.890;4.726;2022-10-10T01:35:29;5.37;;;4.87;;
8803;SDS011;4438;50.890;4.726;2022-10-10T01:40:38;4.87;;;4.37;;
8803;SDS011;4438;50.890;4.726;2022-10-10T01:43:07;5.13;;;4.63;;
8803;SDS011;4438;50.890;4.726;2022-10-10T01:45:33;5.77;;;4.40;;
8803;SDS011;4438;50.890;4.726;2022-10-10T01:48:01;5.93;;;5.00;;
8803;SDS011;4438;50.890;4.726;2022-10-10T01:50:28;5.20;;;4.27;;
8803;SDS011;4438;50.890;4.726;2022-10-10T01:53:04;4.93;;;4.47;;
8803;SDS011;4438;50.890;4.726;2022-10-10T02:00:59;5.30;;;4.80;;
8803;SDS011;4438;50.890;4.726;2022-10-10T02:03:30;6.53;;;4.23;;
8803;SDS011;4438;50.890;4.726;2022-10-10T02:06:08;5.87;;;4.60;;
8803;SDS011;4438;50.890;4.726;2022-10-10T02:08:42;4.70;;;4.17;;
8803;SDS011;4438;50.890;4.726;2022-10-10T02:11:10;4.83;;;4.43;;
8803;SDS011;4438;50.890;4.726;2022-10-10T02:13:38;5.87;;;4.53;;
8803;SDS011;4438;50.890;4.726;2022-10-10T02:16:07;4.60;;;4.20;;
8803;SDS011;4438;50.890;4.726;2022-10-10T02:18:36;5.00;;;4.40;;
8803;SDS011;4438;50.890;4.726;2022-10-10T02:21:03;4.97;;;4.47;;
8803;SDS011;4438;50.890;4.726;2022-10-10T02:23:31;4.67;;;4.27;;
8803;SDS011;4438;50.890;4.726;2022-10-10T02:25:58;7.17;;;4.90;;
8803;SDS011;4438;50.890;4.726;2022-10-10T02:28:28;4.30;;;3.90;;
8803;SDS011;4438;50.890;4.726;2022-10-10T02:30:58;4.63;;;4.23;;
8803;SDS011;4438;50.890;4.726;2022-10-10T02:33:27;4.50;;;4.10;;
8803;SDS011;4438;50.890;4.726;2022-10-10T02:35:53;4.80;;;4.30;;
8803;SDS011;4438;50.890;4.726;2022-10-10T02:38:19;4.70;;;4.30;;
8803;SDS011;4438;50.890;4.726;2022-10-10T02:40:46;5.30;;;4.67;;
8803;SDS011;4438;50.890;4.726;2022-10-10T02:43:13;5.63;;;4.57;;
8803;SDS011;4438;50.890;4.726;2022-10-10T02:45:40;4.93;;;4.10;;
8803;SDS011;4438;50.890;4.726;2022-10-10T02:48:06;5.03;;;4.37;;
8803;SDS011;4438;50.890;4.726;2022-10-10T02:50:32;7.00;;;4.50;;
8803;SDS011;4438;50.890;4.726;2022-10-10T02:52:59;4.70;;;4.20;;
8803;SDS011;4438;50.890;4.726;2022-10-10T02:55:26;5.87;;;4.30;;
8803;SDS011;4438;50.890;4.726;2022-10-10T02:57:52;4.67;;;4.23;;
8803;SDS011;4438;50.890;4.726;2022-10-10T03:00:18;5.53;;;4.40;;
8803;SDS011;4438;50.890;4.726;2022-10-10T03:02:44;4.27;;;3.77;;
8803;SDS011;4438;50.890;4.726;2022-10-10T03:05:11;7.10;;;4.47;;
8803;SDS011;4438;50.890;4.726;2022-10-10T03:07:37;5.20;;;3.90;;
8803;SDS011;4438;50.890;4.726;2022-10-10T03:10:03;4.43;;;3.97;;
8803;SDS011;4438;50.890;4.726;2022-10-10T03:12:31;5.27;;;4.10;;
8803;SDS011;4438;50.890;4.726;2022-10-10T03:14:57;4.50;;;4.03;;
8803;SDS011;4438;50.890;4.726;2022-10-10T03:17:23;5.70;;;4.10;;
8803;SDS011;4438;50.890;4.726;2022-10-10T03:19:50;5.40;;;4.00;;
8803;SDS011;4438;50.890;4.726;2022-10-10T03:22:16;4.60;;;4.20;;
8803;SDS011;4438;50.890;4.726;2022-10-10T03:24:42;4.17;;;3.70;;
8803;SDS011;4438;50.890;4.726;2022-10-10T03:27:08;4.73;;;4.07;;
8803;SDS011;4438;50.890;4.726;2022-10-10T03:29:34;4.37;;;3.97;;
8803;SDS011;4438;50.890;4.726;2022-10-10T03:32:00;4.47;;;4.03;;
8803;SDS011;4438;50.890;4.726;2022-10-10T03:34:26;4.40;;;4.00;;
8803;SDS011;4438;50.890;4.726;2022-10-10T03:36:52;4.53;;;4.10;;
8803;SDS011;4438;50.890;4.726;2022-10-10T03:39:18;4.60;;;4.20;;
8803;SDS011;4438;50.890;4.726;2022-10-10T03:41:44;6.00;;;4.37;;
8803;SDS011;4438;50.890;4.726;2022-10-10T03:44:11;4.27;;;3.87;;
8803;SDS011;4438;50.890;4.726;2022-10-10T03:46:37;4.63;;;4.10;;
8803;SDS011;4438;50.890;4.726;2022-10-10T03:49:03;4.87;;;4.17;;
8803;SDS011;4438;50.890;4.726;2022-10-10T03:51:29;5.37;;;3.93;;
8803;SDS011;4438;50.890;4.726;2022-10-10T03:53:55;4.43;;;3.90;;
8803;SDS011;4438;50.890;4.726;2022-10-10T03:56:21;5.20;;;4.00;;
8803;SDS011;4438;50.890;4.726;2022-10-10T03:58:48;6.20;;;4.20;;
8803;SDS011;4438;50.890;4.726;2022-10-10T04:01:14;5.60;;;4.30;;
8803;SDS011;4438;50.890;4.726;2022-10-10T04:03:40;6.00;;;4.60;;
8803;SDS011;4438;50.890;4.726;2022-10-10T04:06:06;6.07;;;4.13;;
8803;SDS011;4438;50.890;4.726;2022-10-10T04:08:32;4.90;;;4.23;;
8803;SDS011;4438;50.890;4.726;2022-10-10T04:10:58;4.67;;;4.23;;
8803;SDS011;4438;50.890;4.726;2022-10-10T04:13:24;4.83;;;4.20;;
8803;SDS011;4438;50.890;4.726;2022-10-10T04:15:52;4.57;;;4.00;;
8803;SDS011;4438;50.890;4.726;2022-10-10T04:18:18;4.80;;;4.23;;
8803;SDS011;4438;50.890;4.726;2022-10-10T04:20:44;4.30;;;3.83;;
8803;SDS011;4438;50.890;4.726;2022-10-10T04:23:10;4.67;;;4.27;;
8803;SDS011;4438;50.890;4.726;2022-10-10T04:25:37;6.87;;;4.17;;
8803;SDS011;4438;50.890;4.726;2022-10-10T04:28:03;4.43;;;4.03;;
8803;SDS011;4438;50.890;4.726;2022-10-10T04:30:30;4.83;;;4.30;;
8803;SDS011;4438;50.890;4.726;2022-10-10T04:32:57;4.73;;;4.33;;
8803;SDS011;4438;50.890;4.726;2022-10-10T04:35:23;5.33;;;4.30;;
8803;SDS011;4438;50.890;4.726;2022-10-10T04:37:50;4.47;;;4.07;;
8803;SDS011;4438;50.890;4.726;2022-10-10T04:40:17;4.70;;;4.20;;
8803;SDS011;4438;50.890;4.726;2022-10-10T04:42:43;4.70;;;4.17;;
8803;SDS011;4438;50.890;4.726;2022-10-10T04:45:09;5.20;;;4.07;;
8803;SDS011;4438;50.890;4.726;2022-10-10T04:47:35;6.27;;;4.60;;
8803;SDS011;4438;50.890;4.726;2022-10-10T04:50:02;6.70;;;4.73;;
8803;SDS011;4438;50.890;4.726;2022-10-10T04:52:28;5.53;;;4.57;;
8803;SDS011;4438;50.890;4.726;2022-10-10T04:54:54;4.77;;;4.27;;
8803;SDS011;4438;50.890;4.726;2022-10-10T04:57:20;5.70;;;4.23;;
8803;SDS011;4438;50.890;4.726;2022-10-10T04:59:46;5.30;;;4.10;;
8803;SDS011;4438;50.890;4.726;2022-10-10T05:02:12;5.10;;;4.23;;
8803;SDS011;4438;50.890;4.726;2022-10-10T05:04:38;5.10;;;4.13;;
8803;SDS011;4438;50.890;4.726;2022-10-10T05:07:04;6.00;;;4.40;;
8803;SDS011;4438;50.890;4.726;2022-10-10T05:09:30;5.57;;;3.93;;
8803;SDS011;4438;50.890;4.726;2022-10-10T05:11:58;4.30;;;3.90;;
8803;SDS011;4438;50.890;4.726;2022-10-10T05:14:24;4.83;;;4.33;;
8803;SDS011;4438;50.890;4.726;2022-10-10T05:16:50;5.13;;;4.37;;
8803;SDS011;4438;50.890;4.726;2022-10-10T05:19:16;5.57;;;4.63;;
8803;SDS011;4438;50.890;4.726;2022-10-10T05:21:43;4.57;;;4.17;;
8803;SDS011;4438;50.890;4.726;2022-10-10T05:24:09;6.47;;;4.40;;
8803;SDS011;4438;50.890;4.726;2022-10-10T05:26:35;5.70;;;4.20;;
8803;SDS011;4438;50.890;4.726;2022-10-10T05:29:01;5.87;;;4.40;;
8803;SDS011;4438;50.890;4.726;2022-10-10T05:31:27;5.93;;;4.20;;
8803;SDS011;4438;50.890;4.726;2022-10-10T05:33:53;6.97;;;5.83;;
8803;SDS011;4438;50.890;4.726;2022-10-10T05:36:19;5.77;;;4.57;;
8803;SDS011;4438;50.890;4.726;2022-10-10T05:38:45;5.97;;;4.50;;
8803;SDS011;4438;50.890;4.726;2022-10-10T05:41:12;5.07;;;4.37;;
8803;SDS011;4438;50.890;4.726;2022-10-10T05:43:38;5.73;;;5.23;;
8803;SDS011;4438;50.890;4.726;2022-10-10T05:46:04;5.50;;;4.90;;
8803;SDS011;4438;50.890;4.726;2022-10-10T05:48:30;5.60;;;5.10;;
8803;SDS011;4438;50.890;4.726;2022-10-10T05:50:57;4.83;;;4.33;;
8803;SDS011;4438;50.890;4.726;2022-10-10T05:53:24;5.47;;;4.90;;
8803;SDS011;4438;50.890;4.726;2022-10-10T05:55:50;8.17;;;5.27;;
8803;SDS011;4438;50.890;4.726;2022-10-10T05:58:17;7.97;;;5.07;;
8803;SDS011;4438;50.890;4.726;2022-10-10T06:00:43;5.87;;;4.87;;
8803;SDS011;4438;50.890;4.726;2022-10-10T06:03:10;6.77;;;5.33;;
8803;SDS011;4438;50.890;4.726;2022-10-10T06:05:44;7.40;;;5.13;;
8803;SDS011;4438;50.890;4.726;2022-10-10T06:08:14;7.27;;;5.53;;
8803;SDS011;4438;50.890;4.726;2022-10-10T06:10:41;6.23;;;5.20;;
8803;SDS011;4438;50.890;4.726;2022-10-10T06:13:08;5.60;;;5.07;;
8803;SDS011;4438;50.890;4.726;2022-10-10T06:15:34;7.53;;;5.33;;
8803;SDS011;4438;50.890;4.726;2022-10-10T06:18:00;6.37;;;5.60;;
8803;SDS011;4438;50.890;4.726;2022-10-10T06:20:27;7.47;;;5.60;;
8803;SDS011;4438;50.890;4.726;2022-10-10T06:22:53;6.00;;;5.40;;
8803;SDS011;4438;50.890;4.726;2022-10-10T06:25:19;8.13;;;5.77;;
8803;SDS011;4438;50.890;4.726;2022-10-10T06:27:45;10.37;;;5.53;;
8803;SDS011;4438;50.890;4.726;2022-10-10T06:30:11;7.80;;;5.70;;
8803;SDS011;4438;50.890;4.726;2022-10-10T06:32:38;7.57;;;5.87;;
8803;SDS011;4438;50.890;4.726;2022-10-10T06:35:04;6.00;;;5.43;;
8803;SDS011;4438;50.890;4.726;2022-10-10T06:37:31;6.63;;;5.63;;
8803;SDS011;4438;50.890;4.726;2022-10-10T06:39:57;8.37;;;5.80;;
8803;SDS011;4438;50.890;4.726;2022-10-10T06:42:23;8.07;;;4.70;;
8803;SDS011;4438;50.890;4.726;2022-10-10T06:44:49;6.97;;;5.93;;
8803;SDS011;4438;50.890;4.726;2022-10-10T06:47:16;8.83;;;6.23;;
8803;SDS011;4438;50.890;4.726;2022-10-10T06:49:42;10.57;;;5.70;;
8803;SDS011;4438;50.890;4.726;2022-10-10T06:52:08;6.87;;;5.17;;
8803;SDS011;4438;50.890;4.726;2022-10-10T06:54:34;5.93;;;5.30;;
8803;SDS011;4438;50.890;4.726;2022-10-10T06:57:00;7.40;;;5.57;;
8803;SDS011;4438;50.890;4.726;2022-10-10T06:59:26;6.33;;;5.60;;
8803;SDS011;4438;50.890;4.726;2022-10-10T07:01:52;6.50;;;5.27;;
8803;SDS011;4438;50.890;4.726;2022-10-10T07:04:18;5.73;;;5.00;;
8803;SDS011;4438;50.890;4.726;2022-10-10T07:06:44;6.47;;;5.17;;
8803;SDS011;4438;50.890;4.726;2022-10-10T07:09:10;8.00;;;5.43;;
8803;SDS011;4438;50.890;4.726;2022-10-10T07:11:37;7.23;;;5.70;;
8803;SDS011;4438;50.890;4.726;2022-10-10T07:14:05;9.03;;;5.93;;
8803;SDS011;4438;50.890;4.726;2022-10-10T07:16:31;6.67;;;5.53;;
8803;SDS011;4438;50.890;4.726;2022-10-10T07:18:58;8.00;;;5.27;;
8803;SDS011;4438;50.890;4.726;2022-10-10T07:21:24;8.83;;;5.77;;
8803;SDS011;4438;50.890;4.726;2022-10-10T07:23:51;8.83;;;5.90;;
8803;SDS011;4438;50.890;4.726;2022-10-10T07:26:17;7.37;;;5.70;;
8803;SDS011;4438;50.890;4.726;2022-10-10T07:28:46;9.47;;;5.97;;
8803;SDS011;4438;50.890;4.726;2022-10-10T07:31:12;7.77;;;5.80;;
8803;SDS011;4438;50.890;4.726;2022-10-10T07:33:44;9.37;;;6.53;;
8803;SDS011;4438;50.890;4.726;2022-10-10T07:36:10;7.97;;;5.77;;
8803;SDS011;4438;50.890;4.726;2022-10-10T07:38:36;8.67;;;5.90;;
8803;SDS011;4438;50.890;4.726;2022-10-10T07:41:10;6.70;;;5.90;;
8803;SDS011;4438;50.890;4.726;2022-10-10T07:43:37;6.67;;;5.77;;
8803;SDS011;4438;50.890;4.726;2022-10-10T07:46:03;9.80;;;6.37;;
8803;SDS011;4438;50.890;4.726;2022-10-10T07:48:30;9.93;;;5.90;;
8803;SDS011;4438;50.890;4.726;2022-10-10T07:50:56;7.40;;;5.60;;
8803;SDS011;4438;50.890;4.726;2022-10-10T07:53:23;6.53;;;5.60;;
8803;SDS011;4438;50.890;4.726;2022-10-10T07:55:49;9.03;;;5.67;;
8803;SDS011;4438;50.890;4.726;2022-10-10T07:58:15;6.60;;;5.70;;
8803;SDS011;4438;50.890;4.726;2022-10-10T08:00:41;7.03;;;5.33;;
8803;SDS011;4438;50.890;4.726;2022-10-10T08:03:08;11.37;;;6.30;;
8803;SDS011;4438;50.890;4.726;2022-10-10T08:05:41;7.17;;;5.33;;
8803;SDS011;4438;50.890;4.726;2022-10-10T08:08:10;6.70;;;5.57;;
8803;SDS011;4438;50.890;4.726;2022-10-10T08:10:37;7.40;;;6.40;;
8803;SDS011;4438;50.890;4.726;2022-10-10T08:13:03;7.20;;;5.60;;
8803;SDS011;4438;50.890;4.726;2022-10-10T08:15:29;9.77;;;5.87;;
8803;SDS011;4438;50.890;4.726;2022-10-10T08:17:55;8.63;;;6.13;;
8803;SDS011;4438;50.890;4.726;2022-10-10T08:20:22;8.17;;;6.07;;
8803;SDS011;4438;50.890;4.726;2022-10-10T08:22:48;9.13;;;6.10;;
8803;SDS011;4438;50.890;4.726;2022-10-10T08:25:14;7.93;;;5.93;;
8803;SDS011;4438;50.890;4.726;2022-10-10T08:27:40;7.70;;;5.57;;
8803;SDS011;4438;50.890;4.726;2022-10-10T08:30:06;7.53;;;6.13;;
8803;SDS011;4438;50.890;4.726;2022-10-10T08:32:32;9.80;;;5.90;;
8803;SDS011;4438;50.890;4.726;2022-10-10T08:34:58;6.30;;;5.50;;
8803;SDS011;4438;50.890;4.726;2022-10-10T08:37:24;8.03;;;5.40;;
8803;SDS011;4438;50.890;4.726;2022-10-10T08:39:50;7.17;;;5.00;;
8803;SDS011;4438;50.890;4.726;2022-10-10T08:42:19;5.27;;;4.53;;
8803;SDS011;4438;50.890;4.726;2022-10-10T08:44:53;9.57;;;5.50;;
8803;SDS011;4438;50.890;4.726;2022-10-10T08:47:21;7.20;;;4.93;;
8803;SDS011;4438;50.890;4.726;2022-10-10T08:52:28;7.17;;;5.47;;
8803;SDS011;4438;50.890;4.726;2022-10-10T08:54:55;6.93;;;5.50;;
8803;SDS011;4438;50.890;4.726;2022-10-10T08:57:26;9.43;;;6.00;;
8803;SDS011;4438;50.890;4.726;2022-10-10T08:59:55;8.90;;;5.27;;
8803;SDS011;4438;50.890;4.726;2022-10-10T09:04:58;6.00;;;4.53;;
8803;SDS011;4438;50.890;4.726;2022-10-10T09:07:31;8.00;;;5.10;;
8803;SDS011;4438;50.890;4.726;2022-10-10T09:10:43;9.30;;;5.00;;
8803;SDS011;4438;50.890;4.726;2022-10-10T09:12:53;8.07;;;4.80;;
8803;SDS011;4438;50.890;4.726;2022-10-10T09:15:30;10.33;;;5.60;;
8803;SDS011;4438;50.890;4.726;2022-10-10T09:18:36;7.70;;;4.97;;
8803;SDS011;4438;50.890;4.726;2022-10-10T09:23:20;9.07;;;4.90;;
8803;SDS011;4438;50.890;4.726;2022-10-10T09:25:59;9.97;;;5.23;;
8803;SDS011;4438;50.890;4.726;2022-10-10T09:28:33;10.20;;;5.23;;
8803;SDS011;4438;50.890;4.726;2022-10-10T09:31:00;8.40;;;5.37;;
8803;SDS011;4438;50.890;4.726;2022-10-10T09:35:58;8.23;;;5.57;;
8803;SDS011;4438;50.890;4.726;2022-10-10T09:40:58;7.17;;;5.73;;
8803;SDS011;4438;50.890;4.726;2022-10-10T09:43:28;9.07;;;5.43;;
8803;SDS011;4438;50.890;4.726;2022-10-10T09:45:54;10.90;;;5.53;;
8803;SDS011;4438;50.890;4.726;2022-10-10T09:48:21;9.23;;;5.30;;
8803;SDS011;4438;50.890;4.726;2022-10-10T09:50:48;10.43;;;5.17;;
8803;SDS011;4438;50.890;4.726;2022-10-10T09:53:14;9.70;;;4.90;;
8803;SDS011;4438;50.890;4.726;2022-10-10T09:55:41;6.23;;;4.73;;
8803;SDS011;4438;50.890;4.726;2022-10-10T10:00:36;6.77;;;4.20;;
8803;SDS011;4438;50.890;4.726;2022-10-10T10:03:04;9.47;;;4.80;;
8803;SDS011;4438;50.890;4.726;2022-10-10T10:05:30;6.27;;;4.23;;
8803;SDS011;4438;50.890;4.726;2022-10-10T10:07:57;8.47;;;4.80;;
8803;SDS011;4438;50.890;4.726;2022-10-10T10:10:23;8.77;;;4.80;;
8803;SDS011;4438;50.890;4.726;2022-10-10T10:12:51;8.00;;;4.80;;
8803;SDS011;4438;50.890;4.726;2022-10-10T10:15:23;7.87;;;4.13;;
8803;SDS011;4438;50.890;4.726;2022-10-10T10:20:36;5.93;;;4.10;;
8803;SDS011;4438;50.890;4.726;2022-10-10T10:23:02;8.33;;;4.17;;
8803;SDS011;4438;50.890;4.726;2022-10-10T10:25:33;6.93;;;4.43;;
8803;SDS011;4438;50.890;4.726;2022-10-10T10:30:39;7.37;;;3.73;;
8803;SDS011;4438;50.890;4.726;2022-10-10T10:35:56;7.83;;;4.30;;
8803;SDS011;4438;50.890;4.726;2022-10-10T10:38:32;9.17;;;4.40;;
8803;SDS011;4438;50.890;4.726;2022-10-10T10:41:04;10.73;;;4.10;;
8803;SDS011;4438;50.890;4.726;2022-10-10T10:43:42;7.20;;;3.83;;
8803;SDS011;4438;50.890;4.726;2022-10-10T10:48:44;6.67;;;3.97;;
8803;SDS011;4438;50.890;4.726;2022-10-10T10:51:27;9.40;;;4.13;;
8803;SDS011;4438;50.890;4.726;2022-10-10T10:56:32;5.63;;;3.83;;
8803;SDS011;4438;50.890;4.726;2022-10-10T10:59:08;11.33;;;4.13;;
8803;SDS011;4438;50.890;4.726;2022-10-10T11:04:53;7.93;;;3.70;;
8803;SDS011;4438;50.890;4.726;2022-10-10T11:07:21;7.90;;;3.97;;
8803;SDS011;4438;50.890;4.726;2022-10-10T11:10:25;11.37;;;4.73;;
8803;SDS011;4438;50.890;4.726;2022-10-10T11:15:35;6.00;;;3.80;;
8803;SDS011;4438;50.890;4.726;2022-10-10T11:20:59;7.00;;;3.67;;
8803;SDS011;4438;50.890;4.726;2022-10-10T11:23:31;9.63;;;4.10;;
8803;SDS011;4438;50.890;4.726;2022-10-10T11:25:59;7.83;;;3.73;;
8803;SDS011;4438;50.890;4.726;2022-10-10T11:30:58;6.80;;;3.67;;
8803;SDS011;4438;50.890;4.726;2022-10-10T11:33:33;5.43;;;3.67;;
8803;SDS011;4438;50.890;4.726;2022-10-10T11:36:01;8.47;;;3.80;;
8803;SDS011;4438;50.890;4.726;2022-10-10T11:38:38;8.07;;;4.17;;
8803;SDS011;4438;50.890;4.726;2022-10-10T11:46:44;6.97;;;3.90;;
8803;SDS011;4438;50.890;4.726;2022-10-10T11:57:04;8.93;;;4.00;;
8803;SDS011;4438;50.890;4.726;2022-10-10T11:59:43;6.13;;;3.60;;
8803;SDS011;4438;50.890;4.726;2022-10-10T12:02:20;10.07;;;4.10;;
8803;SDS011;4438;50.890;4.726;2022-10-10T12:04:47;7.13;;;3.80;;
8803;SDS011;4438;50.890;4.726;2022-10-10T12:07:15;9.47;;;4.33;;
8803;SDS011;4438;50.890;4.726;2022-10-10T12:09:43;7.50;;;3.57;;
8803;SDS011;4438;50.890;4.726;2022-10-10T12:12:18;9.33;;;3.27;;
8803;SDS011;4438;50.890;4.726;2022-10-10T12:14:47;7.60;;;3.23;;
8803;SDS011;4438;50.890;4.726;2022-10-10T12:17:25;6.40;;;3.07;;
8803;SDS011;4438;50.890;4.726;2022-10-10T12:19:54;8.27;;;3.30;;
8803;SDS011;4438;50.890;4.726;2022-10-10T12:22:24;8.37;;;3.27;;
8803;SDS011;4438;50.890;4.726;2022-10-10T12:27:41;7.40;;;3.03;;
8803;SDS011;4438;50.890;4.726;2022-10-10T12:32:40;9.60;;;3.90;;
8803;SDS011;4438;50.890;4.726;2022-10-10T12:40:31;8.10;;;3.73;;
8803;SDS011;4438;50.890;4.726;2022-10-10T12:42:59;8.10;;;3.87;;
8803;SDS011;4438;50.890;4.726;2022-10-10T12:47:56;8.23;;;3.57;;
8803;SDS011;4438;50.890;4.726;2022-10-10T12:50:26;8.00;;;3.60;;
8803;SDS011;4438;50.890;4.726;2022-10-10T12:55:23;6.10;;;3.23;;
8803;SDS011;4438;50.890;4.726;2022-10-10T12:57:51;4.67;;;3.03;;
8803;SDS011;4438;50.890;4.726;2022-10-10T13:00:19;7.50;;;3.37;;
8803;SDS011;4438;50.890;4.726;2022-10-10T13:02:50;5.53;;;3.60;;
8803;SDS011;4438;50.890;4.726;2022-10-10T13:05:18;9.37;;;3.67;;
8803;SDS011;4438;50.890;4.726;2022-10-10T13:07:45;6.37;;;3.50;;
8803;SDS011;4438;50.890;4.726;2022-10-10T13:10:20;6.30;;;3.40;;
8803;SDS011;4438;50.890;4.726;2022-10-10T13:12:56;8.83;;;4.10;;
8803;SDS011;4438;50.890;4.726;2022-10-10T13:15:23;8.53;;;4.20;;
8803;SDS011;4438;50.890;4.726;2022-10-10T13:17:49;7.77;;;4.07;;
8803;SDS011;4438;50.890;4.726;2022-10-10T13:22:51;6.47;;;3.93;;
8803;SDS011;4438;50.890;4.726;2022-10-10T13:25:17;7.87;;;4.50;;
8803;SDS011;4438;50.890;4.726;2022-10-10T13:27:43;7.43;;;4.20;;
8803;SDS011;4438;50.890;4.726;2022-10-10T13:30:17;7.27;;;4.17;;
8803;SDS011;4438;50.890;4.726;2022-10-10T13:32:43;9.80;;;4.63;;
8803;SDS011;4438;50.890;4.726;2022-10-10T13:35:14;7.33;;;4.00;;
8803;SDS011;4438;50.890;4.726;2022-10-10T13:37:41;7.67;;;4.50;;
8803;SDS011;4438;50.890;4.726;2022-10-10T13:40:16;8.90;;;4.10;;
8803;SDS011;4438;50.890;4.726;2022-10-10T13:42:43;8.17;;;4.60;;
8803;SDS011;4438;50.890;4.726;2022-10-10T13:48:10;6.20;;;4.33;;
8803;SDS011;4438;50.890;4.726;2022-10-10T13:55:48;5.63;;;4.17;;
8803;SDS011;4438;50.890;4.726;2022-10-10T13:58:14;7.43;;;4.70;;
8803;SDS011;4438;50.890;4.726;2022-10-10T14:00:41;8.07;;;4.40;;
8803;SDS011;4438;50.890;4.726;2022-10-10T14:03:25;6.60;;;4.13;;
8803;SDS011;4438;50.890;4.726;2022-10-10T14:05:51;10.13;;;4.83;;
8803;SDS011;4438;50.890;4.726;2022-10-10T14:08:18;9.13;;;4.10;;
8803;SDS011;4438;50.890;4.726;2022-10-10T14:13:43;6.27;;;4.37;;
8803;SDS011;4438;50.890;4.726;2022-10-10T14:16:22;7.20;;;4.47;;
8803;SDS011;4438;50.890;4.726;2022-10-10T14:18:48;8.83;;;5.70;;
8803;SDS011;4438;50.890;4.726;2022-10-10T14:21:14;7.57;;;4.43;;
8803;SDS011;4438;50.890;4.726;2022-10-10T14:23:40;5.40;;;4.33;;
8803;SDS011;4438;50.890;4.726;2022-10-10T14:26:08;7.33;;;4.70;;
8803;SDS011;4438;50.890;4.726;2022-10-10T14:28:36;7.80;;;4.97;;
8803;SDS011;4438;50.890;4.726;2022-10-10T14:31:03;9.20;;;4.90;;
8803;SDS011;4438;50.890;4.726;2022-10-10T14:33:29;7.03;;;4.90;;
8803;SDS011;4438;50.890;4.726;2022-10-10T14:35:56;9.47;;;5.07;;
8803;SDS011;4438;50.890;4.726;2022-10-10T14:38:23;11.60;;;5.50;;
8803;SDS011;4438;50.890;4.726;2022-10-10T14:40:50;8.43;;;4.80;;
8803;SDS011;4438;50.890;4.726;2022-10-10T14:43:16;7.77;;;4.93;;
8803;SDS011;4438;50.890;4.726;2022-10-10T14:45:44;10.07;;;6.37;;
8803;SDS011;4438;50.890;4.726;2022-10-10T14:48:11;14.00;;;8.93;;
8803;SDS011;4438;50.890;4.726;2022-10-10T14:50:41;10.60;;;8.53;;
8803;SDS011;4438;50.890;4.726;2022-10-10T14:53:08;11.20;;;9.43;;
8803;SDS011;4438;50.890;4.726;2022-10-10T14:55:34;14.73;;;8.63;;
8803;SDS011;4438;50.890;4.726;2022-10-10T14:58:01;10.20;;;8.73;;
8803;SDS011;4438;50.890;4.726;2022-10-10T15:00:27;12.43;;;8.67;;
8803;SDS011;4438;50.890;4.726;2022-10-10T15:02:53;9.93;;;8.63;;
8803;SDS011;4438;50.890;4.726;2022-10-10T15:05:20;12.93;;;9.30;;
8803;SDS011;4438;50.890;4.726;2022-10-10T15:07:46;11.27;;;9.67;;
8803;SDS011;4438;50.890;4.726;2022-10-10T15:10:17;10.60;;;9.47;;
8803;SDS011;4438;50.890;4.726;2022-10-10T15:12:43;9.97;;;8.97;;
8803;SDS011;4438;50.890;4.726;2022-10-10T15:15:10;10.73;;;9.73;;
8803;SDS011;4438;50.890;4.726;2022-10-10T15:17:37;10.53;;;9.27;;
8803;SDS011;4438;50.890;4.726;2022-10-10T15:20:04;13.67;;;9.47;;
8803;SDS011;4438;50.890;4.726;2022-10-10T15:22:30;8.10;;;7.30;;
8803;SDS011;4438;50.890;4.726;2022-10-10T15:24:57;6.70;;;6.10;;
8803;SDS011;4438;50.890;4.726;2022-10-10T15:27:23;8.30;;;6.30;;
8803;SDS011;4438;50.890;4.726;2022-10-10T15:29:49;8.83;;;5.50;;
8803;SDS011;4438;50.890;4.726;2022-10-10T15:32:15;7.33;;;4.23;;
8803;SDS011;4438;50.890;4.726;2022-10-10T15:34:41;5.97;;;3.97;;
8803;SDS011;4438;50.890;4.726;2022-10-10T15:37:07;4.87;;;4.37;;
8803;SDS011;4438;50.890;4.726;2022-10-10T15:39:34;4.23;;;3.83;;
8803;SDS011;4438;50.890;4.726;2022-10-10T15:42:00;4.40;;;3.63;;
8803;SDS011;4438;50.890;4.726;2022-10-10T15:44:26;5.67;;;3.33;;
8803;SDS011;4438;50.890;4.726;2022-10-10T15:46:53;6.10;;;3.37;;
8803;SDS011;4438;50.890;4.726;2022-10-10T15:49:19;4.40;;;3.73;;
8803;SDS011;4438;50.890;4.726;2022-10-10T15:51:45;4.47;;;4.07;;
8803;SDS011;4438;50.890;4.726;2022-10-10T15:54:12;6.53;;;4.10;;
8803;SDS011;4438;50.890;4.726;2022-10-10T15:56:38;6.47;;;5.60;;
8803;SDS011;4438;50.890;4.726;2022-10-10T15:59:05;6.17;;;5.57;;
8803;SDS011;4438;50.890;4.726;2022-10-10T16:01:32;6.10;;;5.53;;
8803;SDS011;4438;50.890;4.726;2022-10-10T16:04:00;5.87;;;5.20;;
8803;SDS011;4438;50.890;4.726;2022-10-10T16:06:26;5.93;;;5.33;;
8803;SDS011;4438;50.890;4.726;2022-10-10T16:08:52;6.00;;;5.30;;
8803;SDS011;4438;50.890;4.726;2022-10-10T16:11:19;5.90;;;5.30;;
8803;SDS011;4438;50.890;4.726;2022-10-10T16:13:46;6.40;;;4.80;;
8803;SDS011;4438;50.890;4.726;2022-10-10T16:16:12;7.53;;;4.60;;
8803;SDS011;4438;50.890;4.726;2022-10-10T16:18:39;4.17;;;3.50;;
8803;SDS011;4438;50.890;4.726;2022-10-10T16:21:06;3.83;;;2.77;;
8803;SDS011;4438;50.890;4.726;2022-10-10T16:23:32;4.13;;;1.83;;
8803;SDS011;4438;50.890;4.726;2022-10-10T16:26:01;2.67;;;1.77;;
8803;SDS011;4438;50.890;4.726;2022-10-10T16:28:27;3.70;;;1.70;;
8803;SDS011;4438;50.890;4.726;2022-10-10T16:30:53;2.77;;;1.60;;
8803;SDS011;4438;50.890;4.726;2022-10-10T16:33:19;3.00;;;1.60;;
8803;SDS011;4438;50.890;4.726;2022-10-10T16:35:46;2.50;;;1.40;;
8803;SDS011;4438;50.890;4.726;2022-10-10T16:38:12;2.17;;;1.50;;
8803;SDS011;4438;50.890;4.726;2022-10-10T16:40:38;2.80;;;1.50;;
8803;SDS011;4438;50.890;4.726;2022-10-10T16:43:04;1.90;;;1.60;;
8803;SDS011;4438;50.890;4.726;2022-10-10T16:45:30;3.17;;;1.67;;
8803;SDS011;4438;50.890;4.726;2022-10-10T16:47:56;2.57;;;1.70;;
8803;SDS011;4438;50.890;4.726;2022-10-10T16:50:22;2.77;;;1.80;;
8803;SDS011;4438;50.890;4.726;2022-10-10T16:52:48;2.97;;;1.80;;
8803;SDS011;4438;50.890;4.726;2022-10-10T16:55:15;3.40;;;1.83;;
8803;SDS011;4438;50.890;4.726;2022-10-10T16:57:41;4.27;;;1.90;;
8803;SDS011;4438;50.890;4.726;2022-10-10T17:00:07;3.83;;;1.80;;
8803;SDS011;4438;50.890;4.726;2022-10-10T17:02:33;3.43;;;2.07;;
8803;SDS011;4438;50.890;4.726;2022-10-10T17:05:02;4.57;;;2.20;;